VMMC Airport Information

Runway Information
Runway 16 Length 10544 ft width 148 ft
Elevation 20 ft Threshold 1195 ft Heading 160
Runway 34 Length 10544 ft Width 148 ft
Elevation 20 ft Threshold 1215 ft Heading 340
Airport Frequencies
Type APP Name HONG KONG Frequency 126.3 MHZ
Type ATIS Name ATIS Frequency 126.4 MHZ
Type GND Name GND Frequency 121.725 MHZ
Type TWR Name TWR Frequency 118 MHZ
Airport Navaids
Type VOR-DME Name Macau Frequency 116400 KHZ
Type VOR Name Jiuzhou Frequency 117200 KHZ
Airport Weather Information & NOTAM
ADDS - METARS form results

(1614 UTC 24 April 2019)
Data provider http://aviationweather.gov/metar/data/
 
METAR text: VMMC 241600Z 21007KT 9999 FEW010 26/25 Q1009 NOSIG
Conditions at: VMMC (MACAO/MACAU , MO) observed 1600 UTC 24 April 2019
Temperature: 26.0°C (79°F)
Dewpoint: 25.0°C (77°F) [RH = 94%]
Pressure (altimeter): 29.79 inches Hg (1009.0 mb)
Winds: from the SSW (210 degrees) at 8 MPH (7 knots; 3.6 m/s)
Visibility: 6 or more miles (10+ km)
Ceiling: at least 12,000 feet AGL
Clouds: few clouds at 1000 feet AGL
Weather: no significant weather observed at this time

METAR text: VMMC 241530Z 20007KT 160V240 9999 FEW010 SCT026 26/25 Q1009 NOSIG
Conditions at: VMMC (MACAO/MACAU , MO) observed 1530 UTC 24 April 2019
Temperature: 26.0°C (79°F)
Dewpoint: 25.0°C (77°F) [RH = 94%]
Pressure (altimeter): 29.79 inches Hg (1009.0 mb)
Winds: from the SSW (200 degrees) at 8 MPH (7 knots; 3.6 m/s)
Visibility: 6 or more miles (10+ km)
Ceiling: at least 12,000 feet AGL
Clouds: few clouds at 1000 feet AGL
scattered clouds at 2600 feet AGL
Weather: no significant weather observed at this time

Forecast for: VMMC (MACAO/MACAU , MO)
Text: TAF VMMC 241100Z 2412/2518 19010KT 9999 FEW012 SCT025
Forecast period: 1200 UTC 24 April 2019 to 1800 UTC 25 April 2019
Forecast type: FROM: standard forecast or significant change
Winds: from the S (190 degrees) at 12 MPH (10 knots; 5.1 m/s)
Visibility: 6 or more miles 10+ km)
Ceiling: at least 12,000 feet AGL
Clouds: few clouds at 1200 feet AGL
scattered clouds at 2500 feet AGL
Weather: no significant weather forecast for this period
Text: TEMPO 2500/2506 4000 SHRA
Forecast period: 0000 to 0600 UTC 25 April 2019
Forecast type: TEMPORARY: The following changes expected for less than half the time period
Visibility: 2.49 miles (4.01 km)
Ceiling: unknown
Clouds: missing
Weather: SHRA  (rain showers)